createdAt,value
2019-03-26T00:01:01.668Z,101246.94
2019-03-26T00:03:35.865Z,101251.14
2019-03-26T00:06:09.577Z,101251.14
2019-03-26T00:08:42.859Z,101246.42
2019-03-26T00:11:16.469Z,101235.46
2019-03-26T00:13:49.522Z,101246.05
2019-03-26T00:16:23.002Z,101259.63
2019-03-26T00:18:56.569Z,101267.20
2019-03-26T00:21:30.575Z,101255.55
2019-03-26T00:24:03.822Z,101270.48
2019-03-26T00:26:37.356Z,101270.48
2019-03-26T00:29:11.201Z,101267.77
2019-03-26T00:31:45.058Z,101273.38
2019-03-26T00:34:19.724Z,101277.88
2019-03-26T00:36:53.336Z,101275.34
2019-03-26T00:39:26.371Z,101277.88
2019-03-26T00:41:59.457Z,101281.75
2019-03-26T00:44:32.938Z,101280.90
2019-03-26T00:47:06.814Z,101283.95
2019-03-26T00:49:40.922Z,101279.34
2019-03-26T00:52:14.374Z,101283.50
2019-03-26T00:54:48.017Z,101286.05
2019-03-26T00:57:21.893Z,101297.39
2019-03-26T00:59:55.635Z,101296.77
2019-03-26T01:02:28.915Z,101298.22
2019-03-26T01:05:02.428Z,101298.22
2019-03-26T01:07:35.924Z,101304.99
2019-03-26T01:10:12.506Z,101310.89
2019-03-26T01:12:45.887Z,101308.65
2019-03-26T01:15:19.357Z,101316.08
2019-03-26T01:17:52.889Z,101310.65
2019-03-26T01:20:26.396Z,101311.63
2019-03-26T01:22:59.924Z,101311.29
2019-03-26T01:25:33.388Z,101301.44
2019-03-26T01:28:06.590Z,101302.80
2019-03-26T01:30:40.480Z,101305.65
2019-03-26T01:33:13.889Z,101288.32
2019-03-26T01:35:47.392Z,101288.32
2019-03-26T01:38:20.590Z,101304.68
2019-03-26T01:40:54.059Z,101289.45
2019-03-26T01:43:27.684Z,101289.45
2019-03-26T01:46:01.129Z,101302.52
2019-03-26T01:48:34.440Z,101302.52
2019-03-26T01:51:07.886Z,101298.23
2019-03-26T01:53:41.388Z,101297.30
2019-03-26T01:56:14.880Z,101307.30
2019-03-26T01:58:48.379Z,101304.94
2019-03-26T02:01:21.471Z,101310.02
2019-03-26T02:03:54.670Z,101314.02
2019-03-26T02:06:28.567Z,101310.58
2019-03-26T02:09:02.041Z,101310.58
2019-03-26T02:11:35.573Z,101313.67
2019-03-26T02:14:09.056Z,101314.22
2019-03-26T02:16:42.610Z,101315.95
2019-03-26T02:19:16.129Z,101309.30
2019-03-26T02:21:49.477Z,101309.30
2019-03-26T02:24:23.102Z,101318.58
2019-03-26T02:26:56.888Z,101314.64
2019-03-26T02:29:30.390Z,101315.70
2019-03-26T02:32:03.992Z,101319.86
2019-03-26T02:34:37.493Z,101323.00
2019-03-26T02:37:11.133Z,101325.45
2019-03-26T02:39:44.494Z,101326.44
2019-03-26T02:42:18.102Z,101325.08
2019-03-26T02:44:52.094Z,101329.31
2019-03-26T02:47:25.520Z,101329.31
2019-03-26T02:49:59.376Z,101318.81
2019-03-26T02:52:33.316Z,101318.81
2019-03-26T02:55:06.615Z,101332.50
2019-03-26T02:57:40.454Z,101324.56
2019-03-26T03:00:14.100Z,101324.56
2019-03-26T03:02:47.616Z,101328.80
2019-03-26T03:05:34.289Z,101327.16
2019-03-26T03:07:56.427Z,101327.16
2019-03-26T03:10:29.999Z,101322.44
2019-03-26T03:13:03.782Z,101319.65
2019-03-26T03:15:37.634Z,101324.02
2019-03-26T03:18:11.362Z,101313.77
2019-03-26T03:20:45.888Z,101313.77
2019-03-26T03:23:19.833Z,101328.60
2019-03-26T03:25:53.417Z,101320.33
2019-03-26T03:28:26.725Z,101325.04
2019-03-26T03:30:58.964Z,101322.45
2019-03-26T03:33:32.508Z,101332.97
2019-03-26T03:36:06.140Z,101335.17
2019-03-26T03:38:41.334Z,101336.23
2019-03-26T03:41:15.165Z,101335.55
2019-03-26T03:43:49.015Z,101344.84
2019-03-26T03:46:22.550Z,101349.13
2019-03-26T03:48:56.028Z,101357.26
2019-03-26T03:51:32.440Z,101352.73
2019-03-26T03:54:06.141Z,101352.98
2019-03-26T03:56:39.484Z,101349.94
2019-03-26T03:59:13.888Z,101355.58
2019-03-26T04:01:47.456Z,101354.13
2019-03-26T04:04:21.010Z,101359.22
2019-03-26T04:06:56.061Z,101364.01
2019-03-26T04:09:30.103Z,101358.58
2019-03-26T04:12:03.522Z,101360.95
2019-03-26T04:14:36.736Z,101353.83
2019-03-26T04:17:09.746Z,101356.03
2019-03-26T04:19:43.376Z,101357.73
2019-03-26T04:22:17.129Z,101357.73
2019-03-26T04:24:50.816Z,101360.82
2019-03-26T04:27:24.383Z,101358.75
2019-03-26T04:29:57.574Z,101362.52
2019-03-26T04:32:31.064Z,101360.73
2019-03-26T04:35:04.499Z,101360.73
2019-03-26T04:37:38.070Z,101358.16
2019-03-26T04:40:11.478Z,101358.16
2019-03-26T04:42:44.883Z,101371.22
2019-03-26T04:45:19.022Z,101374.30
2019-03-26T04:47:53.928Z,101381.34
2019-03-26T04:50:27.429Z,101379.65
2019-03-26T04:53:01.264Z,101379.00
2019-03-26T04:55:34.520Z,101381.12
2019-03-26T04:58:07.835Z,101383.41
2019-03-26T05:00:41.364Z,101379.42
2019-03-26T05:03:14.906Z,101388.57
2019-03-26T05:05:48.422Z,101395.35
2019-03-26T05:08:22.326Z,101401.12
2019-03-26T05:10:55.929Z,101393.33
2019-03-26T05:13:30.470Z,101395.63
2019-03-26T05:16:04.468Z,101389.85
2019-03-26T05:18:38.061Z,101388.97
2019-03-26T05:21:11.911Z,101388.34
2019-03-26T05:23:46.927Z,101388.72
2019-03-26T05:26:20.939Z,101390.72
2019-03-26T05:28:54.561Z,101394.15
2019-03-26T05:31:28.442Z,101380.45
2019-03-26T05:34:02.767Z,101380.45
2019-03-26T05:36:34.828Z,101382.45
2019-03-26T05:39:09.827Z,101383.89
2019-03-26T05:41:43.358Z,101390.30
2019-03-26T05:44:17.037Z,101388.00
2019-03-26T05:46:50.428Z,101393.86
2019-03-26T05:49:23.867Z,101388.94
2019-03-26T05:51:57.401Z,101388.52
2019-03-26T05:54:31.031Z,101385.80
2019-03-26T05:57:04.363Z,101387.66
2019-03-26T05:59:37.993Z,101385.72
2019-03-26T06:02:15.107Z,101383.17
2019-03-26T06:04:46.917Z,101382.87
2019-03-26T06:07:20.509Z,101391.14
2019-03-26T06:09:53.913Z,101391.95
2019-03-26T06:12:27.519Z,101395.72
2019-03-26T06:15:01.042Z,101389.02
2019-03-26T06:17:34.577Z,101392.29
2019-03-26T06:20:09.057Z,101404.30
2019-03-26T06:22:42.630Z,101404.30
2019-03-26T06:25:16.091Z,101402.56
2019-03-26T06:27:49.322Z,101402.56
2019-03-26T06:30:22.850Z,101403.15
2019-03-26T06:32:56.435Z,101411.08
2019-03-26T06:35:29.637Z,101420.16
2019-03-26T06:38:05.031Z,101407.64
2019-03-26T06:40:38.833Z,101407.64
2019-03-26T06:43:12.310Z,101418.80
2019-03-26T06:45:45.872Z,101418.50
2019-03-26T06:48:19.829Z,101425.50
2019-03-26T06:50:53.502Z,101433.94
2019-03-26T06:53:27.082Z,101431.02
2019-03-26T06:56:00.548Z,101437.20
2019-03-26T06:58:34.066Z,101444.29
2019-03-26T07:01:07.490Z,101444.29
2019-03-26T07:03:41.088Z,101442.13
2019-03-26T07:06:14.400Z,101442.13
2019-03-26T07:08:48.341Z,101445.35
2019-03-26T07:11:21.589Z,101446.15
2019-03-26T07:13:55.645Z,101436.78
2019-03-26T07:16:28.361Z,101436.78
2019-03-26T07:19:01.794Z,101442.51
2019-03-26T07:21:35.388Z,101442.51
2019-03-26T07:24:09.089Z,101450.48
2019-03-26T07:26:42.507Z,101453.92
2019-03-26T07:29:16.275Z,101446.16
2019-03-26T07:31:49.909Z,101452.14
2019-03-26T07:34:23.434Z,101464.73
2019-03-26T07:36:57.390Z,101464.14
2019-03-26T07:39:30.912Z,101466.14
2019-03-26T07:42:04.410Z,101465.72
2019-03-26T07:44:38.102Z,101469.36
2019-03-26T07:47:11.522Z,101473.22
2019-03-26T07:49:45.399Z,101478.78
2019-03-26T07:52:18.852Z,101478.28
2019-03-26T07:54:52.434Z,101490.02
2019-03-26T07:57:25.939Z,101490.28
2019-03-26T07:59:59.590Z,101500.00
2019-03-26T08:02:33.075Z,101501.06
2019-03-26T08:05:07.564Z,101501.06
2019-03-26T08:07:43.047Z,101478.63
2019-03-26T08:10:16.611Z,101478.63
2019-03-26T08:12:50.336Z,101480.48
2019-03-26T08:15:23.527Z,101480.48
2019-03-26T08:17:58.000Z,101486.00
2019-03-26T08:20:31.540Z,101486.00
2019-03-26T08:23:04.926Z,101477.18
2019-03-26T08:25:38.414Z,101482.31
2019-03-26T08:28:11.921Z,101486.98
2019-03-26T08:30:46.046Z,101491.27
2019-03-26T08:33:23.509Z,101490.47
2019-03-26T08:35:57.091Z,101473.56
2019-03-26T08:41:17.648Z,101478.61
2019-03-26T08:43:51.104Z,101465.20
2019-03-26T08:46:24.444Z,101465.20
2019-03-26T08:48:57.636Z,101474.25
2019-03-26T08:51:31.349Z,101461.77
2019-03-26T08:54:06.048Z,101461.77
2019-03-26T08:56:39.422Z,101488.92
2019-03-26T08:59:12.653Z,101485.91
2019-03-26T09:01:46.107Z,101481.80
2019-03-26T09:04:26.715Z,101481.80
2019-03-26T09:07:02.414Z,101484.89
2019-03-26T09:09:36.090Z,101489.02
2019-03-26T09:12:09.481Z,101484.00
2019-03-26T09:14:43.283Z,101490.79
2019-03-26T09:17:19.592Z,101481.07
2019-03-26T09:19:52.089Z,101483.88
2019-03-26T09:22:27.462Z,101485.86
2019-03-26T09:25:04.769Z,101482.73
2019-03-26T09:27:40.417Z,101479.92
2019-03-26T09:30:18.026Z,101474.48
2019-03-26T09:32:52.753Z,101473.42
2019-03-26T09:35:26.682Z,101467.35
2019-03-26T09:38:01.621Z,101469.63
2019-03-26T09:40:39.578Z,101459.55
2019-03-26T09:43:19.926Z,101459.55
2019-03-26T09:45:59.093Z,101472.94
2019-03-26T09:48:32.387Z,101460.63
2019-03-26T09:51:06.339Z,101466.27
2019-03-26T09:53:40.120Z,101457.89
2019-03-26T09:56:27.723Z,101455.25
2019-03-26T09:58:51.397Z,101447.91
2019-03-26T10:01:25.477Z,101443.02
2019-03-26T10:03:58.898Z,101437.78
2019-03-26T10:06:32.527Z,101437.78
2019-03-26T10:09:09.349Z,101423.00
2019-03-26T10:11:43.327Z,101419.70
2019-03-26T10:14:17.572Z,101414.44
2019-03-26T10:16:51.096Z,101413.28
2019-03-26T10:19:24.480Z,101413.28
2019-03-26T10:21:58.121Z,101421.98
2019-03-26T10:24:31.528Z,101423.20
2019-03-26T10:27:04.851Z,101418.34
2019-03-26T10:29:38.328Z,101420.28
2019-03-26T10:32:11.873Z,101425.95
2019-03-26T10:34:46.076Z,101414.94
2019-03-26T10:37:19.739Z,101410.61
2019-03-26T10:39:51.961Z,101410.75
2019-03-26T10:42:25.621Z,101402.28
2019-03-26T10:44:59.330Z,101388.59
2019-03-26T10:47:33.424Z,101388.59
2019-03-26T10:50:07.332Z,101408.77
2019-03-26T10:52:40.636Z,101395.93
2019-03-26T10:55:14.307Z,101401.31
2019-03-26T10:57:48.271Z,101401.31
2019-03-26T11:00:21.304Z,101402.53
2019-03-26T11:02:54.235Z,101391.20
2019-03-26T11:05:27.353Z,101398.28
2019-03-26T11:08:00.310Z,101406.30
2019-03-26T11:10:33.880Z,101404.09
2019-03-26T11:13:07.027Z,101395.09
2019-03-26T11:15:41.312Z,101394.72
2019-03-26T11:18:14.434Z,101395.09
2019-03-26T11:20:47.287Z,101398.66
2019-03-26T11:23:20.032Z,101398.28
2019-03-26T11:25:53.263Z,101393.55
2019-03-26T11:28:26.311Z,101389.78
2019-03-26T11:30:58.992Z,101398.97
2019-03-26T11:33:31.892Z,101394.20
2019-03-26T11:36:04.906Z,101397.69
2019-03-26T11:38:39.020Z,101398.88
2019-03-26T11:41:12.374Z,101388.56
2019-03-26T11:43:45.429Z,101391.28
2019-03-26T11:46:18.031Z,101390.77
2019-03-26T11:48:50.877Z,101389.41
2019-03-26T11:51:23.818Z,101389.61
2019-03-26T11:53:57.277Z,101395.19
2019-03-26T11:56:30.010Z,101377.88
2019-03-26T11:59:02.852Z,101374.52
2019-03-26T12:01:36.014Z,101378.41
2019-03-26T12:04:09.314Z,101366.87
2019-03-26T12:06:42.089Z,101365.34
2019-03-26T12:09:15.065Z,101367.38
2019-03-26T12:11:47.897Z,101371.78
2019-03-26T12:14:20.830Z,101357.86
2019-03-26T12:16:55.330Z,101351.20
2019-03-26T12:19:28.311Z,101348.66
2019-03-26T12:22:01.784Z,101344.06
2019-03-26T12:24:46.291Z,101353.20
2019-03-26T12:27:18.804Z,101357.08
2019-03-26T12:29:51.792Z,101357.08
2019-03-26T12:32:24.810Z,101347.44
2019-03-26T12:34:58.057Z,101349.11
2019-03-26T12:37:31.374Z,101358.46
2019-03-26T12:40:04.316Z,101347.38
2019-03-26T12:42:37.597Z,101352.15
2019-03-26T12:45:11.011Z,101336.03
2019-03-26T12:47:43.841Z,101336.03
2019-03-26T12:50:16.770Z,101337.78
2019-03-26T12:52:49.973Z,101337.33
2019-03-26T12:55:22.908Z,101347.09
2019-03-26T12:57:55.901Z,101351.44
2019-03-26T13:00:34.858Z,101355.98
2019-03-26T13:03:08.323Z,101350.54
2019-03-26T13:05:41.321Z,101348.67
2019-03-26T13:08:14.876Z,101350.73
2019-03-26T13:10:53.499Z,101354.30
2019-03-26T13:13:22.769Z,101332.34
2019-03-26T13:15:54.719Z,101332.34
2019-03-26T13:18:26.655Z,101340.90
2019-03-26T13:20:59.724Z,101329.04
2019-03-26T13:23:32.800Z,101329.04
2019-03-26T13:26:06.063Z,101335.97
2019-03-26T13:28:39.013Z,101325.72
2019-03-26T13:31:11.878Z,101318.36
2019-03-26T13:33:45.395Z,101322.83
2019-03-26T13:36:18.049Z,101317.05
2019-03-26T13:38:51.380Z,101318.92
2019-03-26T13:41:24.094Z,101314.67
2019-03-26T13:43:56.931Z,101310.44
2019-03-26T13:46:29.832Z,101306.75
2019-03-26T13:49:02.826Z,101312.20
2019-03-26T13:51:37.173Z,101313.77
2019-03-26T13:54:10.015Z,101305.59
2019-03-26T13:56:42.881Z,101311.02
2019-03-26T13:59:15.871Z,101310.70
2019-03-26T14:01:49.308Z,101309.66
2019-03-26T14:04:22.290Z,101311.68
2019-03-26T14:06:55.439Z,101309.48
2019-03-26T14:09:28.846Z,101305.72
2019-03-26T14:12:02.073Z,101304.73
2019-03-26T14:14:35.026Z,101305.20
2019-03-26T14:17:08.010Z,101292.25
2019-03-26T14:19:41.464Z,101289.67
2019-03-26T14:22:14.404Z,101294.83
2019-03-26T14:24:47.637Z,101300.48
2019-03-26T14:27:20.362Z,101306.67
2019-03-26T14:29:53.718Z,101306.67
2019-03-26T14:32:25.440Z,101306.69
2019-03-26T14:34:58.066Z,101316.87
2019-03-26T14:37:31.485Z,101307.65
2019-03-26T14:40:06.313Z,101306.77
2019-03-26T14:42:39.060Z,101309.10
2019-03-26T14:45:12.061Z,101310.63
2019-03-26T14:47:45.017Z,101310.39
2019-03-26T14:50:18.441Z,101317.89
2019-03-26T14:52:52.816Z,101314.01
2019-03-26T14:55:25.809Z,101315.03
2019-03-26T14:57:58.740Z,101319.06
2019-03-26T15:00:31.761Z,101322.05
2019-03-26T15:03:04.745Z,101317.65
2019-03-26T15:05:36.626Z,101314.45
2019-03-26T15:08:09.684Z,101317.97
2019-03-26T15:10:43.312Z,101317.97
2019-03-26T15:13:16.553Z,101328.83
2019-03-26T15:15:49.306Z,101327.75
2019-03-26T15:18:22.032Z,101322.61
2019-03-26T15:20:55.266Z,101330.48
2019-03-26T15:23:28.309Z,101326.10
2019-03-26T15:26:01.009Z,101323.28
2019-03-26T15:28:33.866Z,101325.16
2019-03-26T15:31:06.811Z,101316.66
2019-03-26T15:33:40.509Z,101318.33
2019-03-26T15:36:13.369Z,101328.16
2019-03-26T15:38:46.052Z,101328.16
2019-03-26T15:41:21.897Z,101332.06
2019-03-26T15:43:53.599Z,101336.23
2019-03-26T15:46:26.305Z,101330.08
2019-03-26T15:48:59.032Z,101330.08
2019-03-26T15:51:31.880Z,101332.63
2019-03-26T15:54:04.882Z,101340.28
2019-03-26T15:56:38.301Z,101343.70
2019-03-26T15:59:13.960Z,101336.52
2019-03-26T16:01:47.569Z,101335.83
2019-03-26T16:04:21.308Z,101338.26
2019-03-26T16:06:54.771Z,101338.26
2019-03-26T16:09:26.768Z,101337.27
2019-03-26T16:12:00.059Z,101338.95
2019-03-26T16:14:32.894Z,101343.15
2019-03-26T16:17:05.880Z,101334.78
2019-03-26T16:19:38.838Z,101338.87
2019-03-26T16:22:11.831Z,101331.73
2019-03-26T16:24:45.261Z,101342.27
2019-03-26T16:27:18.308Z,101332.87
2019-03-26T16:29:51.015Z,101337.42
2019-03-26T16:32:23.870Z,101327.89
2019-03-26T16:34:56.848Z,101337.55
2019-03-26T16:37:31.745Z,101335.16
2019-03-26T16:40:06.699Z,101337.70
2019-03-26T16:42:38.404Z,101344.45
2019-03-26T16:45:11.056Z,101345.25
2019-03-26T16:47:43.995Z,101341.48
2019-03-26T16:50:17.056Z,101349.09
2019-03-26T16:52:49.944Z,101352.20
2019-03-26T16:55:22.843Z,101352.25
2019-03-26T16:57:55.748Z,101348.41
2019-03-26T17:00:34.748Z,101354.09
2019-03-26T17:03:07.734Z,101358.13
2019-03-26T17:05:40.602Z,101370.18
2019-03-26T17:08:13.385Z,101365.27
2019-03-26T17:10:48.454Z,101365.27
2019-03-26T17:13:20.846Z,101372.34
2019-03-26T17:15:53.746Z,101367.52
2019-03-26T17:18:26.757Z,101365.18
2019-03-26T17:20:58.451Z,101361.56
2019-03-26T17:23:31.146Z,101364.19
2019-03-26T17:26:03.985Z,101365.36
2019-03-26T17:28:36.868Z,101368.81
2019-03-26T17:31:09.840Z,101363.03
2019-03-26T17:33:43.288Z,101368.45
2019-03-26T17:36:15.989Z,101370.83
2019-03-26T17:38:48.840Z,101371.09
2019-03-26T17:41:21.794Z,101374.77
2019-03-26T17:43:54.769Z,101375.66
2019-03-26T17:46:27.195Z,101378.22
2019-03-26T17:49:00.007Z,101374.62
2019-03-26T17:51:32.832Z,101377.53
2019-03-26T17:54:06.054Z,101374.05
2019-03-26T17:56:39.309Z,101375.52
2019-03-26T17:59:12.056Z,101384.77
2019-03-26T18:01:45.119Z,101384.62
2019-03-26T18:04:18.065Z,101388.96
2019-03-26T18:06:51.621Z,101394.50
2019-03-26T18:09:24.249Z,101384.80
2019-03-26T18:11:56.986Z,101384.80
2019-03-26T18:14:29.856Z,101402.14
2019-03-26T18:17:02.801Z,101395.48
2019-03-26T18:19:35.805Z,101399.17
2019-03-26T18:22:08.741Z,101393.69
2019-03-26T18:24:40.583Z,101398.80
2019-03-26T18:27:13.817Z,101401.79
2019-03-26T18:29:46.883Z,101401.79
2019-03-26T18:32:19.901Z,101405.50
2019-03-26T18:34:52.839Z,101407.27
2019-03-26T18:37:25.877Z,101411.30
2019-03-26T18:39:58.826Z,101412.75
2019-03-26T18:42:43.331Z,101408.23
2019-03-26T18:45:07.651Z,101408.11
2019-03-26T18:47:40.370Z,101418.90
2019-03-26T18:50:12.611Z,101418.12
2019-03-26T18:52:45.255Z,101426.92
2019-03-26T18:55:18.060Z,101426.92
2019-03-26T18:57:51.390Z,101419.59
2019-03-26T19:00:38.587Z,101426.65
2019-03-26T19:03:12.328Z,101431.63
2019-03-26T19:05:45.074Z,101438.09
2019-03-26T19:08:17.849Z,101430.33
2019-03-26T19:10:50.749Z,101439.74
2019-03-26T19:13:22.686Z,101442.16
2019-03-26T19:15:54.496Z,101446.17
2019-03-26T19:18:27.821Z,101448.61
2019-03-26T19:21:02.322Z,101452.27
2019-03-26T19:23:35.310Z,101446.94
2019-03-26T19:26:08.296Z,101446.94
2019-03-26T19:28:41.061Z,101450.83
2019-03-26T19:31:14.298Z,101464.88
2019-03-26T19:33:47.032Z,101461.62
2019-03-26T19:36:19.894Z,101471.45
2019-03-26T19:38:54.306Z,101466.28
2019-03-26T19:41:27.758Z,101472.66
2019-03-26T19:43:59.695Z,101483.47
2019-03-26T19:46:31.612Z,101481.66
2019-03-26T19:49:04.362Z,101477.92
2019-03-26T19:51:37.075Z,101477.92
2019-03-26T19:54:10.323Z,101475.78
2019-03-26T19:56:43.023Z,101474.52
2019-03-26T19:59:16.301Z,101476.84
2019-03-26T20:01:49.308Z,101486.11
2019-03-26T20:04:21.999Z,101502.45
2019-03-26T20:06:54.866Z,101508.75
2019-03-26T20:09:27.821Z,101501.92
2019-03-26T20:12:00.769Z,101496.77
2019-03-26T20:14:34.373Z,101499.48
2019-03-26T20:17:07.075Z,101501.83
2019-03-26T20:19:39.981Z,101501.80
2019-03-26T20:22:12.894Z,101502.23
2019-03-26T20:24:45.870Z,101512.23
2019-03-26T20:27:18.896Z,101513.14
2019-03-26T20:29:52.778Z,101518.50
2019-03-26T20:32:24.660Z,101518.30
2019-03-26T20:34:58.296Z,101520.95
2019-03-26T20:37:31.285Z,101520.95
2019-03-26T20:40:04.123Z,101533.41
2019-03-26T20:42:37.000Z,101535.58
2019-03-26T20:45:14.316Z,101534.12
2019-03-26T20:47:46.804Z,101535.37
2019-03-26T20:50:37.795Z,101534.50
2019-03-26T20:53:10.790Z,101544.92
2019-03-26T20:55:53.857Z,101542.77
2019-03-26T20:58:17.510Z,101547.97
2019-03-26T21:00:51.353Z,101554.76
2019-03-26T21:03:24.819Z,101554.76
2019-03-26T21:05:57.785Z,101558.31
2019-03-26T21:08:30.284Z,101554.89
2019-03-26T21:11:03.418Z,101558.73
2019-03-26T21:13:33.376Z,101550.92
2019-03-26T21:16:09.732Z,101558.94
2019-03-26T21:18:46.612Z,101563.70
2019-03-26T21:21:20.839Z,101557.91
2019-03-26T21:23:55.413Z,101557.91
2019-03-26T21:26:31.832Z,101563.66
2019-03-26T21:29:06.928Z,101568.68
2019-03-26T21:31:43.559Z,101574.90
2019-03-26T21:34:29.611Z,101571.97
2019-03-26T21:36:49.933Z,101564.42
2019-03-26T21:39:23.306Z,101564.42
2019-03-26T21:41:56.789Z,101568.87
2019-03-26T21:44:28.944Z,101563.07
2019-03-26T21:47:06.057Z,101561.58
2019-03-26T21:49:39.318Z,101568.45
2019-03-26T21:52:12.070Z,101568.30
2019-03-26T21:54:45.020Z,101561.66
2019-03-26T21:57:18.329Z,101569.23
2019-03-26T21:59:51.069Z,101568.47
2019-03-26T22:02:24.329Z,101566.81
2019-03-26T22:04:57.065Z,101569.31
2019-03-26T22:07:30.272Z,101576.92
2019-03-26T22:10:03.264Z,101579.98
2019-03-26T22:12:36.438Z,101581.34
2019-03-26T22:15:11.309Z,101587.28
2019-03-26T22:17:44.323Z,101589.49
2019-03-26T22:20:17.075Z,101585.79
2019-03-26T22:22:51.435Z,101596.50
2019-03-26T22:25:24.046Z,101596.28
2019-03-26T22:27:57.778Z,101596.92
2019-03-26T22:30:29.437Z,101588.34
2019-03-26T22:33:02.075Z,101598.55
2019-03-26T22:35:36.315Z,101600.66
2019-03-26T22:38:09.039Z,101604.86
2019-03-26T22:40:42.013Z,101605.50
2019-03-26T22:43:14.856Z,101608.81
2019-03-26T22:45:47.796Z,101612.30
2019-03-26T22:48:20.909Z,101610.85
2019-03-26T22:50:54.007Z,101613.94
2019-03-26T22:53:26.804Z,101620.09
2019-03-26T22:55:59.773Z,101625.88
2019-03-26T22:58:31.653Z,101625.53
2019-03-26T23:01:04.379Z,101617.20
2019-03-26T23:03:37.056Z,101617.20
2019-03-26T23:06:09.918Z,101626.80
2019-03-26T23:08:42.833Z,101635.67
2019-03-26T23:11:15.778Z,101638.73
2019-03-26T23:13:47.436Z,101638.52
2019-03-26T23:16:21.073Z,101636.81
2019-03-26T23:18:53.989Z,101634.02
2019-03-26T23:21:26.852Z,101634.61
2019-03-26T23:23:59.790Z,101632.23
2019-03-26T23:26:31.615Z,101631.52
2019-03-26T23:29:07.927Z,101628.16
2019-03-26T23:31:38.616Z,101628.16
2019-03-26T23:34:11.381Z,101645.88
2019-03-26T23:36:44.758Z,101645.88
2019-03-26T23:39:16.460Z,101640.94
2019-03-26T23:41:49.023Z,101647.17
2019-03-26T23:44:26.069Z,101646.50
2019-03-26T23:46:56.318Z,101649.95
2019-03-26T23:49:29.065Z,101649.95
2019-03-26T23:52:01.889Z,101649.72
2019-03-26T23:54:34.914Z,101652.60
2019-03-26T23:57:07.808Z,101656.52
2019-03-26T23:59:40.794Z,101649.29
